Welcome to Northern Hawkes Bay. New Zealand.
PWS Header
      nz Flag



Hit Counter


W3C Valid W3C Valid logo


    Wairoa

Select any of the Stations below to visit their websites.










Historic Data from Weather Underground
Select the location of interest below. Wairoa is the default. Please have patience, this Data is slow to load in.
Northern Hawkes Bay Historical Data
Daily Summary for November 16, 2017 Units:  Metric    English   Both
« Previous Day
Next Day »
Daily Weekly Monthly Yearly Custom
  High: Low: Average:
Temperature: 23.0 °C 11.3 °C 15.8 °C
Dew Point: 13.3 °C 9.1 °C 11.3 °C
Humidity: 98% 51% 77%
Wind Speed: 12.2km/h 0.0km/h 3.4km/h
Wind Gust: 24.5km/h - -
Wind- - SW
Pressure: 1026.0 hPa 1019.2 hPa -
Precipitation: 5.1 mm    
Historical Graphs
 
 
Tabular Data for November 16, 2017
Time Temperature Dew Point Pressure Wind Wind Speed Wind Gust Humidity Rainfall Rate (Hourly) solar
00:01 13.6 °C 9.3 °C 1026.0 hPa Calm   1.1 km/h 75% 0.0 mm 0 W/m2
00:06 13.6 °C 9.3 °C 1026.0 hPa Calm   1.1 km/h 75% 0.0 mm 0 W/m2
00:11 13.4 °C 9.1 °C 1025.6 hPa Calm   1.1 km/h 75% 0.0 mm 0 W/m2
00:16 13.3 °C 9.2 °C 1025.6 hPa Calm   1.1 km/h 76% 0.0 mm 0 W/m2
00:21 13.2 °C 9.1 °C 1026.0 hPa Calm   1.1 km/h 76% 0.0 mm 0 W/m2
00:26 13.1 °C 9.2 °C 1025.6 hPa Calm   2.6 km/h 77% 0.0 mm 0 W/m2
00:31 13.1 °C 9.2 °C 1025.6 hPa Calm   5.0 km/h 77% 0.0 mm 0 W/m2
00:36 13.0 °C 9.1 °C 1025.6 hPa Calm   5.0 km/h 77% 0.0 mm 0 W/m2
00:42 12.8 °C 9.1 °C 1025.6 hPa Calm   1.1 km/h 78% 0.0 mm 0 W/m2
00:47 12.8 °C 9.1 °C 1025.6 hPa Calm   1.1 km/h 78% 0.0 mm 0 W/m2
00:52 12.8 °C 9.3 °C 1025.6 hPa Calm   1.1 km/h 79% 0.0 mm 0 W/m2
00:57 12.7 °C 9.2 °C 1025.6 hPa Calm   1.1 km/h 79% 0.0 mm 0 W/m2
01:02 12.8 °C 9.3 °C 1025.6 hPa Calm   1.1 km/h 79% 0.0 mm 0 W/m2
01:07 12.8 °C 9.4 °C 1025.6 hPa Calm   2.6 km/h 80% 0.0 mm 0 W/m2
01:12 12.9 °C 9.6 °C 1025.6 hPa Calm   2.6 km/h 80% 0.0 mm 0 W/m2
01:17 12.8 °C 9.4 °C 1025.3 hPa Calm   1.1 km/h 80% 0.0 mm 0 W/m2
01:22 12.9 °C 9.6 °C 1025.3 hPa Calm   1.1 km/h 80% 0.0 mm 0 W/m2
01:27 13.0 °C 9.4 °C 1025.6 hPa Calm   1.1 km/h 79% 0.0 mm 0 W/m2
01:32 13.0 °C 9.4 °C 1025.3 hPa Calm     79% 0.0 mm 0 W/m2
01:37 13.0 °C 9.3 °C 1025.3 hPa Calm   1.1 km/h 78% 0.0 mm 0 W/m2
01:42 13.1 °C 9.3 °C 1024.9 hPa Calm   1.1 km/h 78% 0.0 mm 0 W/m2
01:49 13.1 °C 9.6 °C 1024.9 hPa Calm   1.1 km/h 79% 0.0 mm 0 W/m2
01:54 13.1 °C 9.6 °C 1025.3 hPa Calm   1.1 km/h 79% 0.0 mm 0 W/m2
01:59 13.1 °C 9.6 °C 1025.3 hPa Calm     79% 0.0 mm 0 W/m2
02:04 13.1 °C 9.6 °C 1024.9 hPa Calm     79% 0.0 mm 0 W/m2
02:09 13.1 °C 9.6 °C 1024.9 hPa Calm     79% 0.0 mm 0 W/m2
02:14 13.1 °C 9.6 °C 1024.9 hPa Calm     79% 0.0 mm 0 W/m2
02:19 13.1 °C 9.6 °C 1024.9 hPa Calm     79% 0.0 mm 0 W/m2
02:24 13.0 °C 9.6 °C 1024.9 hPa Calm   1.1 km/h 80% 0.0 mm 0 W/m2
02:29 13.0 °C 9.6 °C 1024.9 hPa Calm   1.1 km/h 80% 0.0 mm 0 W/m2
02:34 13.0 °C 9.6 °C 1024.9 hPa Calm   2.6 km/h 80% 0.0 mm 0 W/m2
02:39 12.9 °C 9.7 °C 1024.6 hPa Calm   3.5 km/h 81% 0.0 mm 0 W/m2
02:44 12.8 °C 9.6 °C 1024.6 hPa Calm   3.5 km/h 81% 0.0 mm 0 W/m2
02:49 12.8 °C 9.8 °C 1024.6 hPa Calm   1.1 km/h 82% 0.0 mm 0 W/m2
02:54 12.7 °C 9.7 °C 1024.9 hPa Calm   2.6 km/h 82% 0.0 mm 0 W/m2
02:59 12.7 °C 9.7 °C 1024.6 hPa Calm   2.6 km/h 82% 0.0 mm 0 W/m2
03:04 12.7 °C 9.7 °C 1024.6 hPa Calm   2.6 km/h 82% 0.0 mm 0 W/m2
03:09 12.7 °C 9.7 °C 1024.6 hPa Calm   2.6 km/h 82% 0.0 mm 0 W/m2
03:25 12.6 °C 9.6 °C 1024.6 hPa Calm   1.1 km/h 82% 0.0 mm 0 W/m2
03:30 12.5 °C 9.5 °C 1024.6 hPa Calm     82% 0.0 mm 0 W/m2
03:35 12.5 °C 9.7 °C 1024.3 hPa Calm     83% 0.0 mm 0 W/m2
03:40 12.5 °C 9.7 °C 1024.3 hPa Calm     83% 0.0 mm 0 W/m2
03:45 12.5 °C 9.7 °C 1024.3 hPa Calm     83% 0.0 mm 0 W/m2
03:50 12.5 °C 9.7 °C 1024.3 hPa Calm     83% 0.0 mm 0 W/m2
03:55 12.4 °C 9.6 °C 1024.3 hPa Calm     83% 0.0 mm 0 W/m2
04:00 12.2 °C 9.4 °C 1024.3 hPa Calm     83% 0.0 mm 0 W/m2
04:05 12.1 °C 9.3 °C 1024.3 hPa Calm     83% 0.0 mm 0 W/m2
04:10 12.1 °C 9.5 °C 1024.3 hPa Calm     84% 0.0 mm 0 W/m2
04:15 12.1 °C 9.7 °C 1024.3 hPa Calm     85% 0.0 mm 0 W/m2
04:20 12.0 °C 9.6 °C 1023.9 hPa Calm     85% 0.0 mm 0 W/m2
04:25 12.0 °C 9.6 °C 1023.9 hPa Calm     85% 0.0 mm 0 W/m2
04:30 11.9 °C 9.8 °C 1023.9 hPa Calm     87% 0.0 mm 0 W/m2
04:35 11.8 °C 9.7 °C 1023.9 hPa Calm     87% 0.0 mm 0 W/m2
04:40 11.8 °C 9.7 °C 1023.9 hPa Calm     87% 0.0 mm 0 W/m2
04:46 11.7 °C 9.8 °C 1023.9 hPa Calm     88% 0.0 mm 0 W/m2
04:51 11.7 °C 9.8 °C 1023.9 hPa Calm     88% 0.0 mm 0 W/m2
04:56 11.6 °C 9.8 °C 1023.9 hPa Calm     89% 0.0 mm 0 W/m2
05:01 11.6 °C 9.8 °C 1023.9 hPa Calm     89% 0.0 mm 0 W/m2
05:06 11.4 °C 9.7 °C 1023.9 hPa Calm     89% 0.0 mm 0 W/m2
05:11 11.4 °C 9.7 °C 1023.9 hPa Calm     89% 0.0 mm 0 W/m2
05:16 11.4 °C 9.7 °C 1023.9 hPa Calm   1.1 km/h 89% 0.0 mm 0 W/m2
05:21 11.5 °C 9.8 °C 1024.3 hPa Calm   1.1 km/h 89% 0.0 mm 0 W/m2
05:26 11.5 °C 9.9 °C 1023.9 hPa Calm   2.6 km/h 90% 0.0 mm 0 W/m2
05:31 11.6 °C 9.8 °C 1023.9 hPa Calm   2.6 km/h 89% 0.0 mm 0 W/m2
05:36 11.6 °C 9.8 °C 1023.9 hPa Calm   2.6 km/h 89% 0.0 mm 0 W/m2
05:41 11.5 °C 9.8 °C 1023.9 hPa Calm   2.6 km/h 89% 0.0 mm 0 W/m2
05:46 11.5 °C 9.8 °C 1023.9 hPa Calm   1.1 km/h 89% 0.0 mm 0 W/m2
05:51 11.5 °C 9.8 °C 1023.9 hPa Calm   2.6 km/h 89% 0.0 mm 1 W/m2
05:56 11.4 °C 9.7 °C 1023.9 hPa Calm   2.6 km/h 89% 0.0 mm 4 W/m2
06:01 11.4 °C 9.8 °C 1023.9 hPa Calm   2.6 km/h 90% 0.0 mm 7 W/m2
06:06 11.3 °C 9.7 °C 1024.3 hPa Calm   2.6 km/h 90% 0.0 mm 13 W/m2
06:11 11.3 °C 9.7 °C 1024.3 hPa North 1.1 km/h 2.6 km/h 90% 0.0 mm 30 W/m2
06:16 11.7 °C 10.1 °C 1024.3 hPa Calm   2.6 km/h 90% 0.0 mm 30 W/m2
06:21 11.9 °C 10.3 °C 1024.3 hPa Calm   2.6 km/h 90% 0.0 mm 37 W/m2
06:26 12.2 °C 10.3 °C 1024.3 hPa Calm   1.1 km/h 88% 0.0 mm 53 W/m2
06:31 12.8 °C 11.1 °C 1024.3 hPa Calm   1.1 km/h 89% 0.0 mm 58 W/m2
06:36 13.5 °C 11.4 °C 1024.3 hPa Calm   1.1 km/h 87% 0.0 mm 66 W/m2
06:41 14.0 °C 11.3 °C 1024.3 hPa Calm   1.1 km/h 84% 0.0 mm 73 W/m2
06:46 14.2 °C 11.0 °C 1024.3 hPa Calm   2.6 km/h 81% 0.0 mm 81 W/m2
06:51 14.3 °C 10.7 °C 1024.3 hPa Calm   2.6 km/h 79% 0.0 mm 92 W/m2
06:56 14.8 °C 11.0 °C 1023.9 hPa Calm   2.6 km/h 78% 0.0 mm 116 W/m2
07:01 15.2 °C 11.2 °C 1024.3 hPa North 1.1 km/h 3.5 km/h 77% 0.0 mm 140 W/m2
07:06 15.5 °C 11.1 °C 1024.3 hPa NNW 1.1 km/h 3.5 km/h 75% 0.0 mm 148 W/m2
07:11 15.9 °C 11.1 °C 1024.3 hPa NNW 2.6 km/h 5.0 km/h 73% 0.0 mm 148 W/m2
07:16 15.8 °C 11.0 °C 1024.3 hPa NNW 5.0 km/h 7.2 km/h 73% 0.0 mm 149 W/m2
07:21 15.4 °C 10.6 °C 1024.3 hPa NNW 2.6 km/h 7.2 km/h 73% 0.0 mm 145 W/m2
07:26 15.0 °C 10.4 °C 1024.3 hPa NW 3.5 km/h 9.7 km/h 74% 0.0 mm 151 W/m2
07:31 14.9 °C 10.7 °C 1024.3 hPa NW 7.2 km/h 11.1 km/h 76% 0.0 mm 160 W/m2
07:36 14.7 °C 10.7 °C 1024.3 hPa NW 5.0 km/h 13.4 km/h 77% 0.0 mm 169 W/m2
07:41 14.5 °C 10.7 °C 1024.3 hPa NW 3.5 km/h 13.4 km/h 78% 0.0 mm 180 W/m2
07:46 14.8 °C 11.0 °C 1024.3 hPa NW 3.5 km/h 12.2 km/h 78% 0.0 mm 189 W/m2
07:51 15.3 °C 11.1 °C 1023.9 hPa NNW 6.1 km/h 11.1 km/h 76% 0.0 mm 203 W/m2
07:56 15.3 °C 10.9 °C 1024.3 hPa NNW 5.0 km/h 14.8 km/h 75% 0.0 mm 212 W/m2
08:01 15.7 °C 11.1 °C 1024.3 hPa NNW 6.1 km/h 14.8 km/h 74% 0.0 mm 226 W/m2
08:06 15.8 °C 11.0 °C 1024.3 hPa North 11.1 km/h 15.8 km/h 73% 0.0 mm 235 W/m2
08:11 15.8 °C 11.0 °C 1024.3 hPa NNW 3.5 km/h 15.8 km/h 73% 0.0 mm 247 W/m2
08:16 16.3 °C 11.3 °C 1024.3 hPa North 5.0 km/h 15.8 km/h 72% 0.0 mm 261 W/m2
08:21 16.3 °C 11.1 °C 1024.3 hPa North 8.7 km/h 15.8 km/h 71% 0.0 mm 275 W/m2
08:26 16.4 °C 10.9 °C 1024.3 hPa NNW 1.1 km/h 15.8 km/h 70% 0.0 mm 287 W/m2
08:31 16.9 °C 11.2 °C 1024.3 hPa NNW 3.5 km/h 12.2 km/h 69% 0.0 mm 300 W/m2
08:36 17.4 °C 11.0 °C 1024.3 hPa North 7.2 km/h 11.1 km/h 66% 0.0 mm 316 W/m2
08:41 17.2 °C 10.6 °C 1024.3 hPa North 5.0 km/h 11.1 km/h 65% 0.0 mm 331 W/m2
08:46 17.4 °C 10.8 °C 1024.3 hPa North 3.5 km/h 11.1 km/h 65% 0.0 mm 345 W/m2
08:51 17.6 °C 10.5 °C 1024.3 hPa North 5.0 km/h 13.4 km/h 63% 0.0 mm 357 W/m2
08:56 18.0 °C 11.3 °C 1024.3 hPa North 7.2 km/h 13.4 km/h 65% 0.0 mm 375 W/m2
09:01 17.9 °C 10.5 °C 1024.3 hPa North 3.5 km/h 13.4 km/h 62% 0.0 mm 388 W/m2
09:06 18.4 °C 11.2 °C 1024.3 hPa North 2.6 km/h 13.4 km/h 63% 0.0 mm 404 W/m2
09:11 18.5 °C 10.6 °C 1024.3 hPa NNW 6.1 km/h 9.7 km/h 60% 0.0 mm 418 W/m2
09:16 18.6 °C 10.9 °C 1024.3 hPa NNW 2.6 km/h 9.7 km/h 61% 0.0 mm 432 W/m2
09:21 18.8 °C 11.6 °C 1024.3 hPa NNW 3.5 km/h 8.7 km/h 63% 0.0 mm 450 W/m2
09:26 19.0 °C 11.6 °C 1024.3 hPa NNW 2.6 km/h 7.2 km/h 62% 0.0 mm 467 W/m2
09:31 19.5 °C 11.8 °C 1024.3 hPa North 2.6 km/h 7.2 km/h 61% 0.0 mm 484 W/m2
09:36 19.6 °C 11.1 °C 1024.3 hPa North 5.0 km/h 11.1 km/h 58% 0.0 mm 506 W/m2
09:41 19.5 °C 10.5 °C 1024.3 hPa NNW 2.6 km/h 11.1 km/h 56% 0.0 mm 521 W/m2
09:46 19.7 °C 10.4 °C 1024.3 hPa North 7.2 km/h 9.7 km/h 55% 0.0 mm 533 W/m2
09:51 19.1 °C 10.4 °C 1024.3 hPa North 3.5 km/h 17.2 km/h 57% 0.0 mm 368 W/m2
09:56 19.6 °C 10.6 °C 1023.9 hPa Calm   17.2 km/h 56% 0.0 mm 639 W/m2
10:01 19.9 °C 10.9 °C 1023.9 hPa North 3.5 km/h 11.1 km/h 56% 0.0 mm 405 W/m2
10:06 19.3 °C 10.3 °C 1023.9 hPa North 6.1 km/h 11.1 km/h 56% 0.0 mm 683 W/m2
10:11 19.7 °C 11.2 °C 1023.9 hPa North 6.1 km/h 11.1 km/h 58% 0.0 mm 703 W/m2
10:16 19.9 °C 11.2 °C 1023.9 hPa NNW 6.1 km/h 12.2 km/h 57% 0.0 mm 713 W/m2
10:21 20.1 °C 11.3 °C 1023.6 hPa Calm   12.2 km/h 57% 0.0 mm 640 W/m2
10:26 21.1 °C 11.2 °C 1023.6 hPa NE 5.0 km/h 9.7 km/h 53% 0.0 mm 835 W/m2
10:31 20.5 °C 12.2 °C 1023.6 hPa ESE 6.1 km/h 14.8 km/h 59% 0.0 mm 239 W/m2
10:37 19.1 °C 12.4 °C 1023.9 hPa SE 3.5 km/h 14.8 km/h 65% 0.0 mm 295 W/m2
10:42 19.2 °C 12.9 °C 1023.6 hPa SE 6.1 km/h 11.1 km/h 67% 0.0 mm 486 W/m2
10:47 19.5 °C 13.0 °C 1023.6 hPa ESE 5.0 km/h 12.2 km/h 66% 0.0 mm 346 W/m2
10:52 19.1 °C 12.4 °C 1023.6 hPa SE 9.7 km/h 15.8 km/h 65% 0.0 mm 846 W/m2
10:57 18.6 °C 11.9 °C 1023.6 hPa SSE 1.1 km/h 15.8 km/h 65% 0.0 mm 302 W/m2
11:03 19.4 °C 12.4 °C 1023.6 hPa SSE 7.2 km/h 14.8 km/h 64% 0.0 mm 958 W/m2
11:08 20.0 °C 11.8 °C 1023.6 hPa SE 6.1 km/h 11.1 km/h 59% 0.0 mm 845 W/m2
11:13 19.4 °C 12.2 °C 1023.6 hPa SE 5.0 km/h 11.1 km/h 63% 0.0 mm 534 W/m2
11:18 19.3 °C 12.6 °C 1023.2 hPa SSE 6.1 km/h 17.2 km/h 65% 0.0 mm 850 W/m2
11:28 20.0 °C 12.3 °C 1023.2 hPa SE 2.6 km/h 12.2 km/h 61% 0.0 mm 392 W/m2
11:33 19.4 °C 12.2 °C 1023.2 hPa SE 5.0 km/h 13.4 km/h 63% 0.0 mm 377 W/m2
11:38 19.1 °C 12.2 °C 1023.2 hPa SSE 7.2 km/h 15.8 km/h 64% 0.0 mm 406 W/m2
11:43 18.6 °C 11.7 °C 1023.2 hPa SSE 3.5 km/h 15.8 km/h 64% 0.0 mm 397 W/m2
11:48 18.8 °C 12.1 °C 1022.9 hPa SE 3.5 km/h 15.8 km/h 65% 0.0 mm 520 W/m2
11:53 19.5 °C 12.5 °C 1022.9 hPa SE 5.0 km/h 15.8 km/h 64% 0.0 mm 943 W/m2
11:58 20.6 °C 12.3 °C 1022.9 hPa ESE 3.5 km/h 12.2 km/h 59% 0.0 mm 934 W/m2
12:03 20.7 °C 12.2 °C 1022.6 hPa SE 3.5 km/h 14.8 km/h 58% 0.0 mm 861 W/m2
12:08 20.6 °C 11.8 °C 1022.6 hPa SE 6.1 km/h 14.8 km/h 57% 0.0 mm 860 W/m2
12:13 20.2 °C 11.4 °C 1022.2 hPa SE 5.0 km/h 14.8 km/h 57% 0.0 mm 839 W/m2
12:18 20.2 °C 11.4 °C 1022.6 hPa SE 7.2 km/h 15.8 km/h 57% 0.0 mm 835 W/m2
12:23 20.5 °C 12.5 °C 1022.2 hPa SSE 7.2 km/h 15.8 km/h 60% 0.0 mm 828 W/m2
12:28 20.5 °C 11.4 °C 1022.2 hPa SE 7.2 km/h 17.2 km/h 56% 0.0 mm 816 W/m2
12:33 20.1 °C 11.1 °C 1022.2 hPa ESE 7.2 km/h 17.2 km/h 56% 0.0 mm 810 W/m2
12:38 20.2 °C 11.9 °C 1022.2 hPa ESE 5.0 km/h 17.2 km/h 59% 0.0 mm 811 W/m2
12:43 20.2 °C 11.4 °C 1021.9 hPa ESE 8.7 km/h 17.2 km/h 57% 0.0 mm 809 W/m2
12:48 20.6 °C 12.1 °C 1021.9 hPa ESE 8.7 km/h 18.3 km/h 58% 0.0 mm 810 W/m2
12:53 20.6 °C 11.8 °C 1022.2 hPa SSE 8.7 km/h 18.3 km/h 57% 0.0 mm 806 W/m2
12:59 20.6 °C 12.3 °C 1021.9 hPa SE 7.2 km/h 15.8 km/h 59% 0.0 mm 802 W/m2
13:04 20.8 °C 13.0 °C 1021.9 hPa SE 7.2 km/h 18.3 km/h 61% 0.0 mm 800 W/m2
13:09 21.0 °C 12.4 °C 1021.9 hPa ESE 7.2 km/h 18.3 km/h 58% 0.0 mm 796 W/m2
13:14 20.9 °C 12.1 °C 1021.6 hPa SE 3.5 km/h 17.2 km/h 57% 0.0 mm 791 W/m2
13:19 21.0 °C 12.2 °C 1021.6 hPa SE 5.0 km/h 17.2 km/h 57% 0.0 mm 787 W/m2
13:24 21.2 °C 12.1 °C 1021.6 hPa ESE 6.1 km/h 15.8 km/h 56% 0.0 mm 782 W/m2
13:29 21.3 °C 12.4 °C 1021.6 hPa ESE 3.5 km/h 15.8 km/h 57% 0.0 mm 779 W/m2
13:34 21.5 °C 12.9 °C 1021.6 hPa SE 1.1 km/h 14.8 km/h 58% 0.0 mm 774 W/m2
13:39 21.4 °C 13.1 °C 1021.6 hPa SE 5.0 km/h 24.5 km/h 59% 0.0 mm 768 W/m2
13:44 21.1 °C 12.6 °C 1021.6 hPa SE 2.6 km/h 24.5 km/h 58% 0.0 mm 760 W/m2
13:54 21.0 °C 12.7 °C 1021.2 hPa SE 8.7 km/h 15.8 km/h 59% 0.0 mm 748 W/m2
13:59 21.1 °C 12.3 °C 1021.2 hPa SE 7.2 km/h 14.8 km/h 57% 0.0 mm 743 W/m2
14:04 21.3 °C 13.0 °C 1021.2 hPa SE 5.0 km/h 14.8 km/h 59% 0.0 mm 737 W/m2
14:09 21.6 °C 13.0 °C 1020.9 hPa SE 5.0 km/h 14.8 km/h 58% 0.0 mm 730 W/m2
14:14 21.7 °C 13.1 °C 1020.9 hPa SE 8.7 km/h 14.8 km/h 58% 0.0 mm 726 W/m2
14:19 21.6 °C 13.3 °C 1020.9 hPa SE 6.1 km/h 17.2 km/h 59% 0.0 mm 717 W/m2
14:24 21.9 °C 12.7 °C 1020.9 hPa ESE 8.7 km/h 17.2 km/h 56% 0.0 mm 699 W/m2
14:29 21.7 °C 12.6 °C 1020.9 hPa ESE 6.1 km/h 14.8 km/h 56% 0.0 mm 696 W/m2
14:34 21.6 °C 12.4 °C 1020.5 hPa ESE 6.1 km/h 17.2 km/h 56% 0.0 mm 686 W/m2
14:39 22.0 °C 12.8 °C 1020.5 hPa SE 6.1 km/h 17.2 km/h 56% 0.0 mm 675 W/m2
14:44 22.2 °C 12.4 °C 1020.5 hPa SE 6.1 km/h 18.3 km/h 54% 0.0 mm 667 W/m2
14:49 22.3 °C 12.6 °C 1020.2 hPa SE 12.2 km/h 18.3 km/h 54% 0.0 mm 663 W/m2
14:54 22.0 °C 11.7 °C 1020.2 hPa ESE 9.7 km/h 17.2 km/h 52% 0.0 mm 590 W/m2
14:59 22.0 °C 11.7 °C 1020.2 hPa ESE 2.6 km/h 17.2 km/h 52% 0.0 mm 621 W/m2
15:04 22.2 °C 11.6 °C 1019.9 hPa ESE 9.7 km/h 17.2 km/h 51% 0.0 mm 498 W/m2
15:09 22.6 °C 12.8 °C 1020.2 hPa ESE 3.5 km/h 18.3 km/h 54% 0.0 mm 561 W/m2
15:14 23.0 °C 13.2 °C 1019.9 hPa SSE 7.2 km/h 18.3 km/h 54% 0.0 mm 551 W/m2
15:19 23.0 °C 12.6 °C 1019.5 hPa SSE 6.1 km/h 17.2 km/h 52% 0.0 mm 637 W/m2
15:25 23.0 °C 12.6 °C 1019.9 hPa SE 7.2 km/h 19.5 km/h 52% 0.0 mm 198 W/m2
15:30 22.0 °C 12.0 °C 1019.9 hPa SE 1.1 km/h 19.5 km/h 53% 0.0 mm 179 W/m2
15:36 21.0 °C 11.6 °C 1019.5 hPa SE 5.0 km/h 15.8 km/h 55% 0.0 mm 184 W/m2
15:41 20.6 °C 11.5 °C 1019.5 hPa ESE 9.7 km/h 15.8 km/h 56% 0.0 mm 240 W/m2
15:51 20.6 °C 11.0 °C 1019.5 hPa ENE 6.1 km/h 23.3 km/h 54% 0.0 mm 201 W/m2
15:56 20.8 °C 10.9 °C 1019.5 hPa ENE 7.2 km/h 15.8 km/h 53% 0.0 mm 142 W/m2
16:01 20.5 °C 10.9 °C 1019.5 hPa ENE 5.0 km/h 15.8 km/h 54% 0.0 mm 165 W/m2
16:06 20.5 °C 10.6 °C 1019.5 hPa East 8.7 km/h 15.8 km/h 53% 0.0 mm 163 W/m2
16:16 20.2 °C 10.6 °C 1019.5 hPa East 9.7 km/h 15.8 km/h 54% 0.0 mm 133 W/m2
16:21 20.1 °C 10.5 °C 1019.5 hPa East 3.5 km/h 15.8 km/h 54% 0.0 mm 117 W/m2
16:25 20.2 °C 10.6 °C 1019.5 hPa East 8.7 km/h 13.4 km/h 54% 0.0 mm 114 W/m2
16:30 20.1 °C 10.5 °C 1019.2 hPa East 7.2 km/h 12.2 km/h 54% 0.0 mm 99 W/m2
16:33 19.9 °C 10.6 °C 1019.2 hPa East 6.1 km/h 13.4 km/h 55% 0.0 mm 88 W/m2
16:38 19.8 °C 10.8 °C 1019.2 hPa ENE 6.1 km/h 13.4 km/h 56% 0.0 mm 53 W/m2
16:43 19.8 °C 11.3 °C 1019.2 hPa ENE 3.5 km/h 13.4 km/h 58% 0.0 mm 36 W/m2
16:48 19.6 °C 11.1 °C 1019.5 hPa Calm   11.1 km/h 58% 0.0 mm 31 W/m2
16:53 19.3 °C 11.3 °C 1019.5 hPa NNW 5.0 km/h 9.7 km/h 60% 0.0 mm 33 W/m2
16:58 18.0 °C 12.0 °C 1019.5 hPa WNW 5.0 km/h 9.7 km/h 68% 0.0 mm 28 W/m2
17:03 16.9 °C 12.2 °C 1019.9 hPa NW 7.2 km/h 12.2 km/h 74% 0.0 mm 23 W/m2
17:08 16.3 °C 12.4 °C 1019.9 hPa NW 9.7 km/h 14.8 km/h 78% 0.3 mm 23 W/m2
17:13 15.4 °C 12.0 °C 1019.9 hPa NNW 12.2 km/h 24.5 km/h 80% 1.5 mm 23 W/m2
17:18 14.3 °C 12.0 °C 1020.2 hPa NNW 6.1 km/h 24.5 km/h 86% 3.0 mm 22 W/m2
17:23 13.9 °C 11.9 °C 1019.9 hPa NNW 1.1 km/h 18.3 km/h 88% 3.6 mm 25 W/m2
17:28 13.7 °C 12.3 °C 1019.9 hPa North 1.1 km/h 11.1 km/h 91% 3.8 mm 28 W/m2
17:33 13.9 °C 12.8 °C 1019.5 hPa ESE 3.5 km/h 6.1 km/h 93% 4.3 mm 29 W/m2
17:38 14.1 °C 12.7 °C 1019.5 hPa Calm   6.1 km/h 91% 4.3 mm 33 W/m2
17:43 14.5 °C 13.1 °C 1019.5 hPa East 5.0 km/h 9.7 km/h 91% 4.3 mm 41 W/m2
17:48 14.5 °C 13.1 °C 1019.5 hPa East 7.2 km/h 13.4 km/h 91% 4.3 mm 44 W/m2
17:53 14.7 °C 12.7 °C 1019.5 hPa East 7.2 km/h 14.8 km/h 88% 4.3 mm 47 W/m2
17:58 14.9 °C 12.4 °C 1019.5 hPa East 3.5 km/h 14.8 km/h 85% 4.3 mm 47 W/m2
18:03 15.1 °C 12.4 °C 1019.5 hPa ENE 1.1 km/h 13.4 km/h 84% 4.3 mm 50 W/m2
18:08 14.9 °C 12.8 °C 1019.5 hPa NE 2.6 km/h 7.2 km/h 87% 3.8 mm 66 W/m2
18:13 14.8 °C 13.2 °C 1019.5 hPa NE 2.6 km/h 9.7 km/h 90% 2.3 mm 84 W/m2
18:18 14.9 °C 13.3 °C 1019.5 hPa NE 2.6 km/h 11.1 km/h 90% 1.3 mm 85 W/m2
18:23 15.0 °C 13.2 °C 1019.5 hPa NNE 2.6 km/h 11.1 km/h 89% 0.5 mm 79 W/m2
18:28 15.0 °C 13.1 °C 1019.5 hPa NNE 2.6 km/h 7.2 km/h 88% 0.3 mm 79 W/m2
18:33 15.1 °C 12.9 °C 1019.5 hPa NNE 3.5 km/h 7.2 km/h 87% 0.0 mm 88 W/m2
18:38 15.1 °C 12.8 °C 1019.5 hPa NNE 3.5 km/h 7.2 km/h 86% 0.0 mm 100 W/m2
18:43 15.2 °C 12.7 °C 1019.5 hPa North 3.5 km/h 8.7 km/h 85% 0.0 mm 89 W/m2
18:48 15.4 °C 12.9 °C 1019.5 hPa NNW 2.6 km/h 8.7 km/h 85% 0.0 mm 67 W/m2
18:52 15.4 °C 12.9 °C 1019.5 hPa North 2.6 km/h 8.7 km/h 85% 0.0 mm 57 W/m2
18:57 15.3 °C 12.6 °C 1019.5 hPa North 3.5 km/h 9.7 km/h 84% 0.0 mm 40 W/m2
19:02 15.2 °C 12.5 °C 1019.5 hPa North 3.5 km/h 13.4 km/h 84% 0.0 mm 35 W/m2
19:07 15.1 °C 12.4 °C 1019.5 hPa North 5.0 km/h 13.4 km/h 84% 0.0 mm 29 W/m2
19:12 15.0 °C 12.5 °C 1019.9 hPa NNW 11.1 km/h 15.8 km/h 85% 0.0 mm 23 W/m2
19:17 14.9 °C 12.8 °C 1020.2 hPa NW 11.1 km/h 19.5 km/h 87% 0.0 mm 17 W/m2
19:22 14.8 °C 12.7 °C 1019.9 hPa NW 8.7 km/h 21.9 km/h 87% 0.0 mm 10 W/m2
19:28 14.7 °C 12.7 °C 1020.2 hPa NNW 3.5 km/h 21.9 km/h 88% 0.0 mm 6 W/m2
19:33 14.6 °C 12.7 °C 1020.2 hPa NNW 5.0 km/h 13.4 km/h 88% 0.0 mm 4 W/m2
19:39 14.4 °C 12.4 °C 1020.2 hPa NW 5.0 km/h 12.2 km/h 88% 0.3 mm 2 W/m2
19:44 14.2 °C 12.4 °C 1020.2 hPa NW 3.5 km/h 12.2 km/h 89% 0.3 mm 0 W/m2
19:49 13.9 °C 12.6 °C 1020.2 hPa WNW 7.2 km/h 8.7 km/h 92% 0.5 mm 0 W/m2
19:59 13.7 °C 12.8 °C 1020.2 hPa NNW 3.5 km/h 8.7 km/h 94% 0.5 mm 0 W/m2
20:04 13.7 °C 12.8 °C 1020.2 hPa NNW 5.0 km/h 7.2 km/h 94% 0.5 mm 0 W/m2
20:10 13.6 °C 12.8 °C 1020.2 hPa NNW 2.6 km/h 7.2 km/h 95% 0.5 mm 0 W/m2
20:15 13.5 °C 12.7 °C 1020.2 hPa NNW 5.0 km/h 8.7 km/h 95% 0.5 mm 0 W/m2
20:20 13.4 °C 12.8 °C 1020.5 hPa NNW 3.5 km/h 8.7 km/h 96% 0.5 mm 0 W/m2
20:25 13.3 °C 12.7 °C 1020.5 hPa North 2.6 km/h 7.2 km/h 96% 0.5 mm 0 W/m2
20:30 13.3 °C 12.7 °C 1020.2 hPa NNW 3.5 km/h 7.2 km/h 96% 0.5 mm 0 W/m2
20:35 13.3 °C 12.8 °C 1020.5 hPa NW 3.5 km/h 8.7 km/h 97% 0.5 mm 0 W/m2
20:40 13.2 °C 12.7 °C 1020.5 hPa NW 2.6 km/h 9.7 km/h 97% 0.3 mm 0 W/m2
20:46 13.2 °C 12.7 °C 1020.5 hPa NNW 2.6 km/h 7.2 km/h 97% 0.0 mm 0 W/m2
20:51 13.2 °C 12.7 °C 1020.9 hPa NNW 3.5 km/h 7.2 km/h 97% 0.0 mm 0 W/m2
20:56 13.1 °C 12.7 °C 1020.9 hPa North 3.5 km/h 7.2 km/h 97% 0.0 mm 0 W/m2
21:01 13.1 °C 12.8 °C 1020.9 hPa North 6.1 km/h 11.1 km/h 98% 0.0 mm 0 W/m2
21:06 13.1 °C 12.8 °C 1020.9 hPa NNW 2.6 km/h 11.1 km/h 98% 0.0 mm 0 W/m2
21:11 13.1 °C 12.8 °C 1020.9 hPa NNW 3.5 km/h 9.7 km/h 98% 0.0 mm 0 W/m2
21:16 13.1 °C 12.8 °C 1020.9 hPa NNW 2.6 km/h 6.1 km/h 98% 0.0 mm 0 W/m2
21:21 13.1 °C 12.7 °C 1020.9 hPa NNW 3.5 km/h 6.1 km/h 97% 0.0 mm 0 W/m2
21:26 13.1 °C 12.7 °C 1020.9 hPa NNW 2.6 km/h 6.1 km/h 97% 0.0 mm 0 W/m2
21:31 13.1 °C 12.7 °C 1020.9 hPa NW 2.6 km/h 6.1 km/h 97% 0.0 mm 0 W/m2
21:36 13.0 °C 12.6 °C 1020.9 hPa Calm   5.0 km/h 97% 0.0 mm 0 W/m2
21:41 12.9 °C 12.4 °C 1020.9 hPa NNW 1.1 km/h 5.0 km/h 97% 0.0 mm 0 W/m2
21:46 12.9 °C 12.4 °C 1020.9 hPa NW 3.5 km/h 7.2 km/h 97% 0.0 mm 0 W/m2
21:51 12.9 °C 12.4 °C 1020.9 hPa Calm   7.2 km/h 97% 0.0 mm 0 W/m2
21:56 12.7 °C 12.2 °C 1020.9 hPa NW 2.6 km/h 7.2 km/h 97% 0.3 mm 0 W/m2
22:01 12.7 °C 12.2 °C 1020.9 hPa Calm   5.0 km/h 97% 0.3 mm 0 W/m2
22:06 12.6 °C 12.2 °C 1020.9 hPa NNW 1.1 km/h 5.0 km/h 97% 0.3 mm 0 W/m2
22:11 12.6 °C 12.2 °C 1020.5 hPa NNW 2.6 km/h 5.0 km/h 97% 0.3 mm 0 W/m2
22:16 12.5 °C 12.1 °C 1020.5 hPa NNW 1.1 km/h 5.0 km/h 97% 0.3 mm 0 W/m2
22:21 12.5 °C 12.1 °C 1020.5 hPa NNW 1.1 km/h 5.0 km/h 97% 0.3 mm 0 W/m2
22:26 12.5 °C 12.1 °C 1020.5 hPa NNW 5.0 km/h 6.1 km/h 97% 0.3 mm 0 W/m2
22:31 12.6 °C 12.2 °C 1020.5 hPa NNW 6.1 km/h 7.2 km/h 97% 0.3 mm 0 W/m2
22:36 12.6 °C 12.2 °C 1020.5 hPa NNW 2.6 km/h 7.2 km/h 97% 0.3 mm 0 W/m2
22:41 12.6 °C 12.2 °C 1020.5 hPa NNW 5.0 km/h 8.7 km/h 97% 0.3 mm 0 W/m2
22:46 12.7 °C 12.2 °C 1020.5 hPa North 5.0 km/h 8.7 km/h 97% 0.3 mm 0 W/m2
22:51 12.7 °C 12.2 °C 1020.2 hPa North 5.0 km/h 8.7 km/h 97% 0.3 mm 0 W/m2
22:56 12.7 °C 12.2 °C 1020.5 hPa North 3.5 km/h 7.2 km/h 97% 0.0 mm 0 W/m2
23:01 12.6 °C 12.2 °C 1020.5 hPa North 6.1 km/h 8.7 km/h 97% 0.0 mm 0 W/m2
23:06 12.6 °C 12.2 °C 1020.5 hPa North 3.5 km/h 11.1 km/h 97% 0.0 mm 0 W/m2
23:11 12.6 °C 12.2 °C 1020.5 hPa NNW 2.6 km/h 11.1 km/h 97% 0.0 mm 0 W/m2
23:16 12.5 °C 12.1 °C 1020.2 hPa North 3.5 km/h 11.1 km/h 97% 0.0 mm 0 W/m2
23:21 12.4 °C 11.9 °C 1020.2 hPa North 3.5 km/h 11.1 km/h 97% 0.0 mm 0 W/m2
23:26 12.3 °C 11.8 °C 1020.2 hPa NNE 6.1 km/h 9.7 km/h 97% 0.0 mm 0 W/m2
23:31 12.3 °C 11.8 °C 1020.2 hPa NNE 3.5 km/h 9.7 km/h 97% 0.0 mm 0 W/m2
23:36 12.2 °C 11.7 °C 1019.9 hPa North 2.6 km/h 9.7 km/h 97% 0.0 mm 0 W/m2
23:46 12.1 °C 11.7 °C 1020.2 hPa NNW 3.5 km/h 8.7 km/h 97% 0.0 mm 0 W/m2
23:51 12.1 °C 11.7 °C 1020.2 hPa NNW 2.6 km/h 7.2 km/h 97% 0.0 mm 0 W/m2
23:56 12.0 °C 11.6 °C 1020.2 hPa NNW 3.5 km/h 7.2 km/h 97% 0.0 mm 0 W/m2
Northern Hawkes Bay. New Zealand Historic Data
Compliments of Weather Underground - 2.25 mb